createdAt,value
2017-02-19T00:00:04.596Z,1018.22
2017-02-19T00:01:04.573Z,1018.17
2017-02-19T00:02:04.552Z,1018.19
2017-02-19T00:03:04.526Z,1018.16
2017-02-19T00:04:04.496Z,1018.19
2017-02-19T00:05:04.473Z,1018.12
2017-02-19T00:06:04.448Z,1018.16
2017-02-19T00:07:04.421Z,1018.16
2017-02-19T00:08:04.396Z,1018.13
2017-02-19T00:09:04.368Z,1018.12
2017-02-19T00:10:04.340Z,1018.05
2017-02-19T00:11:04.317Z,1018.08
2017-02-19T00:12:04.288Z,1018.14
2017-02-19T00:13:04.264Z,1018.08
2017-02-19T00:14:04.236Z,1018.08
2017-02-19T00:15:04.214Z,1018.07
2017-02-19T00:16:04.198Z,1018.1
2017-02-19T00:17:04.157Z,1018.09
2017-02-19T00:18:04.138Z,1018.07
2017-02-19T00:19:04.106Z,1018.01
2017-02-19T00:20:04.083Z,1018.05
2017-02-19T00:21:04.058Z,1017.94
2017-02-19T00:22:04.030Z,1017.96
2017-02-19T00:23:04.010Z,1018.01
2017-02-19T00:24:03.984Z,1017.94
2017-02-19T00:25:03.953Z,1017.93
2017-02-19T00:26:03.929Z,1017.91
2017-02-19T00:27:03.902Z,1017.92
2017-02-19T00:28:03.873Z,1017.91
2017-02-19T00:29:03.847Z,1017.93
2017-02-19T00:30:03.822Z,1017.87
2017-02-19T00:31:03.798Z,1017.94
2017-02-19T00:32:03.773Z,1017.88
2017-02-19T00:33:03.749Z,1017.89
2017-02-19T00:34:03.714Z,1017.87
2017-02-19T00:35:03.694Z,1017.87
2017-02-19T00:36:03.668Z,1017.9
2017-02-19T00:37:03.641Z,1017.94
2017-02-19T00:38:03.622Z,1017.91
2017-02-19T00:39:03.588Z,1017.86
2017-02-19T00:40:03.560Z,1017.9
2017-02-19T00:41:03.537Z,1017.88
2017-02-19T00:42:03.560Z,1017.8
2017-02-19T00:43:03.483Z,1017.82
2017-02-19T00:44:03.462Z,1017.77
2017-02-19T00:45:03.429Z,1017.82
2017-02-19T00:46:03.406Z,1017.79
2017-02-19T00:47:03.381Z,1017.79
2017-02-19T00:48:03.356Z,1017.77
2017-02-19T00:49:03.328Z,1017.79
2017-02-19T00:50:03.302Z,1017.76
2017-02-19T00:51:03.276Z,1017.8
2017-02-19T00:52:03.257Z,1017.76
2017-02-19T00:53:03.221Z,1017.74
2017-02-19T00:54:03.200Z,1017.73
2017-02-19T00:55:03.172Z,1017.71
2017-02-19T00:56:03.146Z,1017.71
2017-02-19T00:57:03.121Z,1017.69
2017-02-19T00:58:03.119Z,1017.72
2017-02-19T00:59:03.067Z,1017.7
2017-02-19T01:00:03.045Z,1017.73
2017-02-19T01:01:03.015Z,1017.68
2017-02-19T01:02:02.993Z,1017.69
2017-02-19T01:03:02.965Z,1017.69
2017-02-19T01:04:02.936Z,1017.7
2017-02-19T01:05:02.912Z,1017.68
2017-02-19T01:06:02.888Z,1017.64
2017-02-19T01:07:02.861Z,1017.65
2017-02-19T01:08:02.833Z,1017.59
2017-02-19T01:09:02.808Z,1017.61
2017-02-19T01:10:02.783Z,1017.59
2017-02-19T01:11:02.756Z,1017.56
2017-02-19T01:12:02.727Z,1017.6
2017-02-19T01:13:02.703Z,1017.63
2017-02-19T01:14:02.674Z,1017.59
2017-02-19T01:15:02.653Z,1017.62
2017-02-19T01:16:02.624Z,1017.58
2017-02-19T01:17:02.598Z,1017.59
2017-02-19T01:18:02.573Z,1017.61
2017-02-19T01:19:02.546Z,1017.6
2017-02-19T01:20:02.525Z,1017.58
2017-02-19T01:21:02.506Z,1017.6
2017-02-19T01:22:02.467Z,1017.62
2017-02-19T01:23:02.445Z,1017.5
2017-02-19T01:24:02.464Z,1017.53
2017-02-19T01:25:02.390Z,1017.5
2017-02-19T01:26:02.360Z,1017.51
2017-02-19T01:27:02.337Z,1017.56
2017-02-19T01:28:02.315Z,1017.52
2017-02-19T01:29:02.288Z,1017.55
2017-02-19T01:30:02.255Z,1017.56
2017-02-19T01:31:02.234Z,1017.53
2017-02-19T01:32:02.206Z,1017.5
2017-02-19T01:33:02.184Z,1017.49
2017-02-19T01:34:02.153Z,1017.46
2017-02-19T01:35:02.129Z,1017.44
2017-02-19T01:36:02.099Z,1017.43
2017-02-19T01:37:02.078Z,1017.41
2017-02-19T01:38:02.049Z,1017.47
2017-02-19T01:39:02.024Z,1017.47
2017-02-19T01:40:01.994Z,1017.52
2017-02-19T01:41:01.971Z,1017.46
2017-02-19T01:42:01.943Z,1017.44
2017-02-19T01:43:01.924Z,1017.43
2017-02-19T01:44:01.891Z,1017.4
2017-02-19T01:45:01.863Z,1017.38
2017-02-19T01:46:01.838Z,1017.39
2017-02-19T01:47:01.812Z,1017.41
2017-02-19T01:48:01.784Z,1017.34
2017-02-19T01:49:01.757Z,1017.44
2017-02-19T01:50:01.737Z,1017.39
2017-02-19T01:51:01.709Z,1017.37
2017-02-19T01:52:01.680Z,1017.34
2017-02-19T01:53:01.653Z,1017.31
2017-02-19T01:54:01.627Z,1017.3
2017-02-19T01:55:01.602Z,1017.25
2017-02-19T01:56:01.583Z,1017.13
2017-02-19T01:57:01.549Z,1017.13
2017-02-19T01:58:01.524Z,1017.16
2017-02-19T01:59:01.493Z,1017.14
2017-02-19T02:00:01.470Z,1017.14
2017-02-19T02:01:01.444Z,1017.13
2017-02-19T02:02:01.417Z,1017.08
2017-02-19T02:03:01.389Z,1017.07
2017-02-19T02:04:01.367Z,1017.04
2017-02-19T02:05:01.335Z,1017
2017-02-19T02:06:01.318Z,1016.99
2017-02-19T02:07:01.356Z,1016.98
2017-02-19T02:08:01.260Z,1017.01
2017-02-19T02:09:01.235Z,1016.99
2017-02-19T02:10:01.205Z,1017
2017-02-19T02:11:01.189Z,1016.99
2017-02-19T02:12:01.151Z,1016.97
2017-02-19T02:13:01.127Z,1016.94
2017-02-19T02:14:01.100Z,1016.95
2017-02-19T02:15:01.074Z,1016.88
2017-02-19T02:16:01.046Z,1016.9
2017-02-19T02:17:01.019Z,1016.87
2017-02-19T02:18:00.996Z,1016.89
2017-02-19T02:19:00.966Z,1016.83
2017-02-19T02:20:00.939Z,1016.89
2017-02-19T02:21:00.917Z,1016.81
2017-02-19T02:22:00.891Z,1016.86
2017-02-19T02:23:00.860Z,1016.86
2017-02-19T02:24:00.839Z,1016.87
2017-02-19T02:25:00.830Z,1016.85
2017-02-19T02:26:00.785Z,1016.83
2017-02-19T02:27:00.756Z,1016.77
2017-02-19T02:28:00.733Z,1016.73
2017-02-19T02:29:00.703Z,1016.74
2017-02-19T02:30:00.680Z,1016.7
2017-02-19T02:31:00.650Z,1016.74
2017-02-19T02:32:00.624Z,1016.72
2017-02-19T02:33:00.595Z,1016.66
2017-02-19T02:34:00.572Z,1016.62
2017-02-19T02:35:00.544Z,1016.56
2017-02-19T02:36:00.521Z,1016.53
2017-02-19T02:37:00.491Z,1016.51
2017-02-19T02:38:00.463Z,1016.52
2017-02-19T02:39:00.440Z,1016.58
2017-02-19T02:40:00.413Z,1016.57
2017-02-19T02:41:00.388Z,1016.55
2017-02-19T02:42:00.361Z,1016.56
2017-02-19T02:43:00.333Z,1016.58
2017-02-19T02:44:00.308Z,1016.52
2017-02-19T02:45:00.283Z,1016.53
2017-02-19T02:46:00.262Z,1016.54
2017-02-19T02:47:00.231Z,1016.51
2017-02-19T02:48:00.202Z,1016.57
2017-02-19T02:49:00.175Z,1016.51
2017-02-19T02:50:00.151Z,1016.53
2017-02-19T02:51:00.125Z,1016.53
2017-02-19T02:52:00.098Z,1016.42
2017-02-19T02:53:00.069Z,1016.46
2017-02-19T02:54:00.047Z,1016.46
2017-02-19T02:55:00.017Z,1016.45
2017-02-19T02:55:59.988Z,1016.48
2017-02-19T02:56:59.966Z,1016.5
2017-02-19T02:57:59.941Z,1016.52
2017-02-19T02:58:59.913Z,1016.48
2017-02-19T02:59:59.887Z,1016.45
2017-02-19T03:00:59.864Z,1016.43
2017-02-19T03:01:59.834Z,1016.4
2017-02-19T03:02:59.809Z,1016.39
2017-02-19T03:03:59.781Z,1016.41
2017-02-19T03:04:59.760Z,1016.41
2017-02-19T03:05:59.729Z,1016.37
2017-02-19T03:06:59.704Z,1016.34
2017-02-19T03:07:59.676Z,1016.41
2017-02-19T03:08:59.653Z,1016.32
2017-02-19T03:09:59.628Z,1016.33
2017-02-19T03:10:59.599Z,1016.32
2017-02-19T03:11:59.621Z,1016.28
2017-02-19T03:12:59.545Z,1016.27
2017-02-19T03:13:59.522Z,1016.25
2017-02-19T03:14:59.495Z,1016.22
2017-02-19T03:15:59.472Z,1016.2
2017-02-19T03:16:59.448Z,1016.18
2017-02-19T03:17:59.416Z,1016.23
2017-02-19T03:18:59.394Z,1016.22
2017-02-19T03:19:59.365Z,1016.21
2017-02-19T03:20:59.369Z,1016.21
2017-02-19T03:21:59.317Z,1016.25
2017-02-19T03:22:59.283Z,1016.25
2017-02-19T03:23:59.264Z,1016.2
2017-02-19T03:24:59.234Z,1016.2
2017-02-19T03:25:59.210Z,1016.25
2017-02-19T03:26:59.183Z,1016.21
2017-02-19T03:27:59.158Z,1016.22
2017-02-19T03:28:59.130Z,1016.18
2017-02-19T03:29:59.107Z,1016.2
2017-02-19T03:30:59.079Z,1016.18
2017-02-19T03:31:59.055Z,1016.2
2017-02-19T03:32:59.022Z,1016.18
2017-02-19T03:33:58.995Z,1016.18
2017-02-19T03:34:58.971Z,1016.21
2017-02-19T03:35:58.947Z,1016.16
2017-02-19T03:36:59.171Z,1016.14
2017-02-19T03:37:58.893Z,1016.19
2017-02-19T03:38:58.869Z,1016.17
2017-02-19T03:39:58.843Z,1016.16
2017-02-19T03:40:58.816Z,1016.15
2017-02-19T03:41:58.790Z,1016.13
2017-02-19T03:42:58.763Z,1016.09
2017-02-19T03:43:58.737Z,1016.14
2017-02-19T03:44:58.714Z,1016.13
2017-02-19T03:45:58.688Z,1016.13
2017-02-19T03:46:58.661Z,1016.12
2017-02-19T03:47:58.633Z,1016.13
2017-02-19T03:48:58.609Z,1016.12
2017-02-19T03:49:58.585Z,1016.11
2017-02-19T03:50:58.555Z,1016.13
2017-02-19T03:51:58.533Z,1016.12
2017-02-19T03:52:58.505Z,1016.03
2017-02-19T03:53:58.481Z,1016.08
2017-02-19T03:54:58.451Z,1016.05
2017-02-19T03:55:58.426Z,1016.02
2017-02-19T03:56:58.399Z,1016.03
2017-02-19T03:57:58.373Z,1015.96
2017-02-19T03:58:58.351Z,1016
2017-02-19T03:59:58.319Z,1015.99
2017-02-19T04:00:58.301Z,1015.98
2017-02-19T04:01:58.270Z,1015.99
2017-02-19T04:02:58.247Z,1015.99
2017-02-19T04:03:58.221Z,1015.95
2017-02-19T04:04:58.194Z,1015.98
2017-02-19T04:05:58.169Z,1015.91
2017-02-19T04:06:58.142Z,1015.99
2017-02-19T04:07:58.117Z,1015.91
2017-02-19T04:08:58.093Z,1016
2017-02-19T04:09:58.064Z,1015.89
2017-02-19T04:10:58.039Z,1015.85
2017-02-19T04:11:58.012Z,1015.87
2017-02-19T04:12:57.986Z,1015.98
2017-02-19T04:13:57.965Z,1015.99
2017-02-19T04:14:57.934Z,1015.99
2017-02-19T04:15:57.912Z,1015.96
2017-02-19T04:16:57.885Z,1015.92
2017-02-19T04:17:57.856Z,1015.94
2017-02-19T04:18:57.833Z,1015.97
2017-02-19T04:19:57.804Z,1015.92
2017-02-19T04:20:57.779Z,1015.95
2017-02-19T04:21:57.754Z,1015.95
2017-02-19T04:22:57.728Z,1015.98
2017-02-19T04:23:57.701Z,1015.91
2017-02-19T04:24:57.675Z,1015.99
2017-02-19T04:25:57.649Z,1015.9
2017-02-19T04:26:57.625Z,1015.92
2017-02-19T04:27:57.598Z,1015.88
2017-02-19T04:28:57.570Z,1015.88
2017-02-19T04:29:57.543Z,1015.91
2017-02-19T04:30:57.527Z,1015.91
2017-02-19T04:31:57.493Z,1015.87
2017-02-19T04:32:57.470Z,1015.84
2017-02-19T04:33:57.443Z,1015.91
2017-02-19T04:34:57.416Z,1015.92
2017-02-19T04:35:57.393Z,1015.91
2017-02-19T04:36:57.364Z,1015.9
2017-02-19T04:37:57.340Z,1015.93
2017-02-19T04:38:57.315Z,1015.9
2017-02-19T04:39:57.287Z,1015.91
2017-02-19T04:40:57.264Z,1015.88
2017-02-19T04:41:57.230Z,1015.84
2017-02-19T04:42:57.215Z,1015.84
2017-02-19T04:43:57.178Z,1015.82
2017-02-19T04:44:57.155Z,1015.78
2017-02-19T04:45:57.140Z,1015.75
2017-02-19T04:46:57.154Z,1015.77
2017-02-19T04:47:57.077Z,1015.71
2017-02-19T04:48:57.053Z,1015.73
2017-02-19T04:49:57.025Z,1015.73
2017-02-19T04:50:57.000Z,1015.76
2017-02-19T04:51:56.975Z,1015.74
2017-02-19T04:52:56.948Z,1015.72
2017-02-19T04:53:56.921Z,1015.7
2017-02-19T04:54:56.895Z,1015.72
2017-02-19T04:55:56.882Z,1015.71
2017-02-19T04:56:56.853Z,1015.7
2017-02-19T04:57:56.816Z,1015.65
2017-02-19T04:58:56.794Z,1015.65
2017-02-19T04:59:56.767Z,1015.66
2017-02-19T05:00:56.738Z,1015.64
2017-02-19T05:01:56.715Z,1015.68
2017-02-19T05:02:56.688Z,1015.66
2017-02-19T05:03:56.658Z,1015.61
2017-02-19T05:04:56.633Z,1015.6
2017-02-19T05:05:56.608Z,1015.56
2017-02-19T05:06:56.582Z,1015.5
2017-02-19T05:07:56.557Z,1015.49
2017-02-19T05:08:56.531Z,1015.5
2017-02-19T05:09:56.504Z,1015.48
2017-02-19T05:10:56.479Z,1015.46
2017-02-19T05:11:56.453Z,1015.43
2017-02-19T05:12:56.480Z,1015.39
2017-02-19T05:13:56.402Z,1015.32
2017-02-19T05:14:56.375Z,1015.34
2017-02-19T05:15:56.346Z,1015.34
2017-02-19T05:16:56.323Z,1015.3
2017-02-19T05:17:56.295Z,1015.27
2017-02-19T05:18:56.272Z,1015.32
2017-02-19T05:19:56.243Z,1015.3
2017-02-19T05:20:56.216Z,1015.27
2017-02-19T05:21:56.197Z,1015.19
2017-02-19T05:22:56.166Z,1015.2
2017-02-19T05:23:56.141Z,1015.18
2017-02-19T05:24:56.113Z,1015.19
2017-02-19T05:25:56.088Z,1015.15
2017-02-19T05:26:56.062Z,1015.14
2017-02-19T05:27:56.037Z,1015.12
2017-02-19T05:28:56.010Z,1015.18
2017-02-19T05:29:55.981Z,1015.19
2017-02-19T05:30:55.957Z,1015.21
2017-02-19T05:31:55.932Z,1015.19
2017-02-19T05:32:55.904Z,1015.19
2017-02-19T05:33:55.880Z,1015.22
2017-02-19T05:34:55.853Z,1015.22
2017-02-19T05:35:55.827Z,1015.18
2017-02-19T05:36:55.799Z,1015.21
2017-02-19T05:37:55.775Z,1015.26
2017-02-19T05:38:55.748Z,1015.2
2017-02-19T05:39:55.722Z,1015.23
2017-02-19T05:40:55.697Z,1015.22
2017-02-19T05:41:55.672Z,1015.2
2017-02-19T05:42:55.646Z,1015.17
2017-02-19T05:43:55.618Z,1015.13
2017-02-19T05:44:55.592Z,1015.11
2017-02-19T05:45:55.565Z,1015.12
2017-02-19T05:46:55.538Z,1015.15
2017-02-19T05:47:55.523Z,1015.08
2017-02-19T05:48:55.488Z,1015.11
2017-02-19T05:49:55.462Z,1015.08
2017-02-19T05:50:55.439Z,1015.08
2017-02-19T05:51:55.411Z,1015.03
2017-02-19T05:52:55.385Z,1015.01
2017-02-19T05:53:55.359Z,1014.94
2017-02-19T05:54:55.332Z,1014.93
2017-02-19T05:55:55.305Z,1014.92
2017-02-19T05:56:55.279Z,1014.9
2017-02-19T05:57:55.258Z,1014.94
2017-02-19T05:58:55.230Z,1014.88
2017-02-19T05:59:55.203Z,1014.9
2017-02-19T06:00:55.190Z,1014.89
2017-02-19T06:01:55.152Z,1014.93
2017-02-19T06:02:55.124Z,1014.93
2017-02-19T06:03:55.100Z,1014.9
2017-02-19T06:04:55.076Z,1014.88
2017-02-19T06:05:55.047Z,1014.86
2017-02-19T06:06:55.024Z,1014.95
2017-02-19T06:07:54.995Z,1014.93
2017-02-19T06:08:54.972Z,1014.93
2017-02-19T06:09:54.942Z,1014.98
2017-02-19T06:10:54.925Z,1014.99
2017-02-19T06:11:54.894Z,1014.98
2017-02-19T06:12:54.866Z,1015.01
2017-02-19T06:13:54.846Z,1015.01
2017-02-19T06:14:54.814Z,1015.02
2017-02-19T06:15:54.788Z,1014.98
2017-02-19T06:16:54.761Z,1014.95
2017-02-19T06:17:54.738Z,1014.96
2017-02-19T06:18:54.711Z,1014.95
2017-02-19T06:19:54.684Z,1014.97
2017-02-19T06:20:54.657Z,1015
2017-02-19T06:21:54.631Z,1014.98
2017-02-19T06:22:54.607Z,1015
2017-02-19T06:23:54.601Z,1014.99
2017-02-19T06:24:54.580Z,1014.95
2017-02-19T06:25:54.544Z,1014.96
2017-02-19T06:26:54.504Z,1014.92
2017-02-19T06:27:54.485Z,1014.91
2017-02-19T06:28:54.451Z,1014.9
2017-02-19T06:29:54.425Z,1014.92
2017-02-19T06:30:54.403Z,1014.86
2017-02-19T06:31:54.376Z,1014.9
2017-02-19T06:32:54.349Z,1014.85
2017-02-19T06:33:54.324Z,1014.9
2017-02-19T06:34:54.300Z,1014.9
2017-02-19T06:35:54.274Z,1014.87
2017-02-19T06:36:54.248Z,1014.93
2017-02-19T06:37:54.220Z,1014.92
2017-02-19T06:38:54.195Z,1014.93
2017-02-19T06:39:54.169Z,1014.93
2017-02-19T06:40:54.144Z,1014.97
2017-02-19T06:41:54.122Z,1015
2017-02-19T06:42:54.092Z,1015.01
2017-02-19T06:43:54.066Z,1015.03
2017-02-19T06:44:54.043Z,1015.04
2017-02-19T06:45:54.019Z,1015.03
2017-02-19T06:46:53.988Z,1015.09
2017-02-19T06:47:53.962Z,1015.11
2017-02-19T06:48:53.938Z,1015.09
2017-02-19T06:49:53.910Z,1015.08
2017-02-19T06:50:53.887Z,1015.07
2017-02-19T06:51:53.859Z,1015.02
2017-02-19T06:52:53.838Z,1015.06
2017-02-19T06:53:53.808Z,1015.09
2017-02-19T06:54:53.786Z,1015.08
2017-02-19T06:55:53.758Z,1015.06
2017-02-19T06:56:53.731Z,1015.05
2017-02-19T06:57:53.706Z,1015.02
2017-02-19T06:58:53.679Z,1015.02
2017-02-19T06:59:53.656Z,1015
2017-02-19T07:00:53.628Z,1015.01
2017-02-19T07:01:53.605Z,1014.93
2017-02-19T07:02:53.580Z,1015.01
2017-02-19T07:03:53.551Z,1015.06
2017-02-19T07:04:53.525Z,1015.02
2017-02-19T07:05:53.499Z,1015.04
2017-02-19T07:06:53.475Z,1015.04
2017-02-19T07:07:53.451Z,1015.01
2017-02-19T07:08:53.425Z,1015.01
2017-02-19T07:09:53.400Z,1015
2017-02-19T07:10:53.374Z,1015
2017-02-19T07:11:53.345Z,1014.94
2017-02-19T07:12:53.320Z,1014.98
2017-02-19T07:13:53.295Z,1014.96
2017-02-19T07:14:53.274Z,1014.89
2017-02-19T07:15:53.244Z,1014.94
2017-02-19T07:16:53.219Z,1014.94
2017-02-19T07:17:53.194Z,1014.96
2017-02-19T07:18:53.171Z,1014.98
2017-02-19T07:19:53.142Z,1014.96
2017-02-19T07:20:53.116Z,1014.96
2017-02-19T07:21:53.094Z,1014.96
2017-02-19T07:22:53.068Z,1014.97
2017-02-19T07:23:53.042Z,1014.98
2017-02-19T07:24:53.020Z,1015
2017-02-19T07:25:52.991Z,1014.97
2017-02-19T07:26:52.964Z,1014.92
2017-02-19T07:27:52.940Z,1014.93
2017-02-19T07:28:52.915Z,1014.97
2017-02-19T07:29:52.897Z,1014.92
2017-02-19T07:30:52.864Z,1014.91
2017-02-19T07:31:52.836Z,1014.87
2017-02-19T07:32:52.813Z,1014.9
2017-02-19T07:33:52.788Z,1014.92
2017-02-19T07:34:52.762Z,1014.88
2017-02-19T07:35:52.740Z,1014.9
2017-02-19T07:36:52.714Z,1014.88
2017-02-19T07:37:52.687Z,1014.83
2017-02-19T07:38:52.666Z,1014.87
2017-02-19T07:39:52.638Z,1014.87
2017-02-19T07:40:52.615Z,1014.85
2017-02-19T07:41:52.596Z,1014.85
2017-02-19T07:42:52.563Z,1014.84
2017-02-19T07:43:52.538Z,1014.86
2017-02-19T07:44:52.515Z,1014.88
2017-02-19T07:45:52.539Z,1014.9
2017-02-19T07:46:52.460Z,1014.89
2017-02-19T07:47:52.437Z,1014.88
2017-02-19T07:48:52.414Z,1014.91
2017-02-19T07:49:52.391Z,1014.84
2017-02-19T07:50:52.365Z,1014.88
2017-02-19T07:51:52.341Z,1014.89
2017-02-19T07:52:52.319Z,1014.94
2017-02-19T07:53:52.292Z,1014.93
2017-02-19T07:54:52.265Z,1014.91
2017-02-19T07:55:52.241Z,1014.88
2017-02-19T07:56:52.215Z,1014.88
2017-02-19T07:57:52.191Z,1014.91
2017-02-19T07:58:52.168Z,1014.93
2017-02-19T07:59:52.143Z,1014.93
2017-02-19T08:00:52.117Z,1014.91
2017-02-19T08:01:52.092Z,1014.89
2017-02-19T08:02:52.068Z,1014.9
2017-02-19T08:03:52.043Z,1014.9
2017-02-19T08:04:52.025Z,1014.9
2017-02-19T08:05:51.997Z,1014.88
2017-02-19T08:06:51.970Z,1014.88
2017-02-19T08:07:51.947Z,1014.85
2017-02-19T08:08:51.925Z,1014.86
2017-02-19T08:09:51.896Z,1014.84
2017-02-19T08:10:51.870Z,1014.79
2017-02-19T08:11:51.847Z,1014.78
2017-02-19T08:12:51.823Z,1014.74
2017-02-19T08:13:51.795Z,1014.74
2017-02-19T08:14:51.774Z,1014.77
2017-02-19T08:15:51.749Z,1014.71
2017-02-19T08:16:51.726Z,1014.68
2017-02-19T08:17:51.700Z,1014.66
2017-02-19T08:18:51.680Z,1014.69
2017-02-19T08:19:51.652Z,1014.68
2017-02-19T08:20:51.627Z,1014.65
2017-02-19T08:21:51.602Z,1014.67
2017-02-19T08:22:51.576Z,1014.64
2017-02-19T08:23:51.552Z,1014.67
2017-02-19T08:24:51.527Z,1014.62
2017-02-19T08:25:51.504Z,1014.69
2017-02-19T08:26:51.730Z,1014.73
2017-02-19T08:27:51.457Z,1014.67
2017-02-19T08:28:51.430Z,1014.69
2017-02-19T08:29:51.405Z,1014.72
2017-02-19T08:30:51.381Z,1014.75
2017-02-19T08:31:51.357Z,1014.74
2017-02-19T08:32:51.334Z,1014.74
2017-02-19T08:33:51.306Z,1014.82
2017-02-19T08:34:51.282Z,1014.8
2017-02-19T08:35:51.256Z,1014.81
2017-02-19T08:36:51.232Z,1014.84
2017-02-19T08:37:51.208Z,1014.88
2017-02-19T08:38:51.186Z,1014.92
2017-02-19T08:39:51.164Z,1014.85
2017-02-19T08:40:51.133Z,1014.92
2017-02-19T08:41:51.111Z,1014.84
2017-02-19T08:42:51.085Z,1014.85
2017-02-19T08:43:51.063Z,1014.81
2017-02-19T08:44:51.040Z,1014.84
2017-02-19T08:45:51.012Z,1014.8
2017-02-19T08:46:50.992Z,1014.82
2017-02-19T08:47:50.968Z,1014.78
2017-02-19T08:48:50.940Z,1014.71
2017-02-19T08:49:50.918Z,1014.72
2017-02-19T08:50:50.890Z,1014.68
2017-02-19T08:51:50.867Z,1014.66
2017-02-19T08:52:50.844Z,1014.68
2017-02-19T08:53:50.821Z,1014.67
2017-02-19T08:54:50.792Z,1014.64
2017-02-19T08:55:50.770Z,1014.6
2017-02-19T08:56:50.747Z,1014.61
2017-02-19T08:57:50.720Z,1014.63
2017-02-19T08:58:50.697Z,1014.63
2017-02-19T08:59:50.672Z,1014.73
2017-02-19T09:00:50.651Z,1014.75
2017-02-19T09:01:50.625Z,1014.66
2017-02-19T09:02:50.600Z,1014.73
2017-02-19T09:03:50.575Z,1014.73
2017-02-19T09:04:50.559Z,1014.72
2017-02-19T09:05:50.528Z,1014.77
2017-02-19T09:06:50.507Z,1014.76
2017-02-19T09:07:50.483Z,1014.73
2017-02-19T09:08:50.453Z,1014.63
2017-02-19T09:09:50.431Z,1014.63
2017-02-19T09:10:50.409Z,1014.65
2017-02-19T09:11:50.385Z,1014.54
2017-02-19T09:12:50.358Z,1014.58
2017-02-19T09:13:50.334Z,1014.56
2017-02-19T09:14:50.310Z,1014.5
2017-02-19T09:15:50.289Z,1014.51
2017-02-19T09:16:50.263Z,1014.5
2017-02-19T09:17:50.239Z,1014.49
2017-02-19T09:18:50.213Z,1014.53
2017-02-19T09:19:50.189Z,1014.49
2017-02-19T09:20:50.166Z,1014.5
2017-02-19T09:21:50.141Z,1014.47
2017-02-19T09:22:50.118Z,1014.48
2017-02-19T09:23:50.091Z,1014.46
2017-02-19T09:24:50.070Z,1014.48
2017-02-19T09:25:50.044Z,1014.47
2017-02-19T09:26:50.069Z,1014.51
2017-02-19T09:27:50.004Z,1014.42
2017-02-19T09:28:49.971Z,1014.42
2017-02-19T09:29:49.948Z,1014.41
2017-02-19T09:30:49.974Z,1014.36
2017-02-19T09:31:49.898Z,1014.34
2017-02-19T09:32:49.877Z,1014.37
2017-02-19T09:33:49.851Z,1014.32
2017-02-19T09:34:49.828Z,1014.36
2017-02-19T09:35:49.804Z,1014.35
2017-02-19T09:36:49.784Z,1014.28
2017-02-19T09:37:49.754Z,1014.26
2017-02-19T09:38:49.736Z,1014.27
2017-02-19T09:39:49.706Z,1014.29
2017-02-19T09:40:49.692Z,1014.29
2017-02-19T09:41:49.663Z,1014.3
2017-02-19T09:42:49.640Z,1014.28
2017-02-19T09:43:49.664Z,1014.29
2017-02-19T09:44:49.591Z,1014.24
2017-02-19T09:45:49.563Z,1014.33
2017-02-19T09:46:49.539Z,1014.4
2017-02-19T09:47:49.518Z,1014.33
2017-02-19T09:48:49.496Z,1014.3
2017-02-19T09:49:49.465Z,1014.36
2017-02-19T09:50:49.443Z,1014.29
2017-02-19T09:51:49.418Z,1014.34
2017-02-19T09:52:49.398Z,1014.35
2017-02-19T09:53:49.372Z,1014.37
2017-02-19T09:54:49.349Z,1014.38
2017-02-19T09:55:49.327Z,1014.42
2017-02-19T09:56:49.305Z,1014.38
2017-02-19T09:57:49.277Z,1014.4
2017-02-19T09:58:49.256Z,1014.39
2017-02-19T09:59:49.229Z,1014.41
2017-02-19T10:00:49.207Z,1014.35
2017-02-19T10:01:49.186Z,1014.37
2017-02-19T10:02:49.160Z,1014.37
2017-02-19T10:03:49.139Z,1014.37
2017-02-19T10:04:49.112Z,1014.41
2017-02-19T10:05:49.087Z,1014.35
2017-02-19T10:06:49.062Z,1014.36
2017-02-19T10:07:49.043Z,1014.26
2017-02-19T10:08:49.018Z,1014.25
2017-02-19T10:09:48.997Z,1014.26
2017-02-19T10:10:48.967Z,1014.26
2017-02-19T10:11:48.948Z,1014.21
2017-02-19T10:12:48.924Z,1014.27
2017-02-19T10:13:48.898Z,1014.27
2017-02-19T10:14:48.875Z,1014.32
2017-02-19T10:15:48.851Z,1014.3
2017-02-19T10:16:48.835Z,1014.3
2017-02-19T10:17:48.806Z,1014.28
2017-02-19T10:18:48.786Z,1014.3
2017-02-19T10:19:48.760Z,1014.22
2017-02-19T10:20:48.735Z,1014.17
2017-02-19T10:21:48.713Z,1014.15
2017-02-19T10:22:48.687Z,1014.07
2017-02-19T10:23:48.671Z,1014.07
2017-02-19T10:24:48.641Z,1014.03
2017-02-19T10:25:48.619Z,1013.98
2017-02-19T10:26:48.595Z,1013.93
2017-02-19T10:27:48.587Z,1013.95
2017-02-19T10:28:48.554Z,1014
2017-02-19T10:29:48.528Z,1013.99
2017-02-19T10:30:48.501Z,1014
2017-02-19T10:31:48.480Z,1014.09
2017-02-19T10:32:48.453Z,1014.13
2017-02-19T10:33:48.437Z,1014.22
2017-02-19T10:34:48.413Z,1014.27
2017-02-19T10:35:48.390Z,1014.29
2017-02-19T10:36:48.364Z,1014.28
2017-02-19T10:37:48.335Z,1014.24
2017-02-19T10:38:48.319Z,1014.24
2017-02-19T10:39:48.290Z,1014.28
2017-02-19T10:40:48.269Z,1014.3
2017-02-19T10:41:48.252Z,1014.23
2017-02-19T10:42:48.221Z,1014.26
2017-02-19T10:43:48.201Z,1014.28
2017-02-19T10:44:48.176Z,1014.25
2017-02-19T10:45:48.157Z,1014.21
2017-02-19T10:46:48.132Z,1014.24
2017-02-19T10:47:48.110Z,1014.2
2017-02-19T10:48:48.084Z,1014.19
2017-02-19T10:49:48.062Z,1014.21
2017-02-19T10:50:48.041Z,1014.2
2017-02-19T10:51:48.014Z,1014.2
2017-02-19T10:52:47.992Z,1014.23
2017-02-19T10:53:47.969Z,1014.25
2017-02-19T10:54:47.946Z,1014.3
2017-02-19T10:55:47.922Z,1014.3
2017-02-19T10:56:47.898Z,1014.24
2017-02-19T10:57:47.932Z,1014.29
2017-02-19T10:58:47.852Z,1014.35
2017-02-19T10:59:47.834Z,1014.35
2017-02-19T11:00:47.806Z,1014.3
2017-02-19T11:01:47.777Z,1014.29
2017-02-19T11:02:47.760Z,1014.31
2017-02-19T11:03:47.746Z,1014.25
2017-02-19T11:04:47.718Z,1014.25
2017-02-19T11:05:47.688Z,1014.22
2017-02-19T11:06:47.663Z,1014.24
2017-02-19T11:07:47.641Z,1014.21
2017-02-19T11:08:47.619Z,1014.21
2017-02-19T11:09:47.599Z,1014.26
2017-02-19T11:10:47.573Z,1014.24
2017-02-19T11:11:47.595Z,1014.26
2017-02-19T11:12:47.524Z,1014.24
2017-02-19T11:13:47.502Z,1014.27
2017-02-19T11:14:47.476Z,1014.26
2017-02-19T11:15:47.460Z,1014.28
2017-02-19T11:16:47.429Z,1014.28
2017-02-19T11:17:47.453Z,1014.25
2017-02-19T11:18:47.383Z,1014.22
2017-02-19T11:19:47.358Z,1014.27
2017-02-19T11:20:47.539Z,1014.27
2017-02-19T11:21:47.319Z,1014.21
2017-02-19T11:22:47.299Z,1014.17
2017-02-19T11:23:47.262Z,1014.13
2017-02-19T11:24:47.246Z,1014.2
2017-02-19T11:25:47.220Z,1014.15
2017-02-19T11:26:47.195Z,1014.17
2017-02-19T11:27:47.170Z,1014.14
2017-02-19T11:28:47.149Z,1014.18
2017-02-19T11:29:47.170Z,1014.17
2017-02-19T11:30:47.145Z,1014.16
2017-02-19T11:31:47.071Z,1014.17
2017-02-19T11:32:47.048Z,1014.15
2017-02-19T11:33:47.028Z,1014.11
2017-02-19T11:34:47.001Z,1014.12
2017-02-19T11:35:46.976Z,1014.14
2017-02-19T11:36:46.953Z,1014.15
2017-02-19T11:37:46.927Z,1014.11
2017-02-19T11:38:46.901Z,1014.11
2017-02-19T11:39:46.885Z,1014.1
2017-02-19T11:40:46.856Z,1014.06
2017-02-19T11:41:46.833Z,1014.09
2017-02-19T11:42:46.815Z,1014.09
2017-02-19T11:43:46.788Z,1014.03
2017-02-19T11:44:46.761Z,1014.07
2017-02-19T11:45:46.735Z,1014.06
2017-02-19T11:46:46.711Z,1014
2017-02-19T11:47:46.691Z,1013.96
2017-02-19T11:48:46.665Z,1013.96
2017-02-19T11:49:46.638Z,1013.97
2017-02-19T11:50:46.674Z,1013.98
2017-02-19T11:51:46.592Z,1014.01
2017-02-19T11:52:46.568Z,1014.01
2017-02-19T11:53:46.545Z,1014.01
2017-02-19T11:54:46.519Z,1013.97
2017-02-19T11:55:46.494Z,1013.89
2017-02-19T11:56:46.929Z,1013.89
2017-02-19T11:57:46.449Z,1013.93
2017-02-19T11:58:46.423Z,1013.93
2017-02-19T11:59:46.395Z,1013.97
2017-02-19T12:00:46.372Z,1013.9
2017-02-19T12:01:46.348Z,1013.95
2017-02-19T12:02:46.330Z,1013.92
2017-02-19T12:03:46.301Z,1013.92
2017-02-19T12:04:46.278Z,1013.87
2017-02-19T12:05:46.266Z,1013.95
2017-02-19T12:06:46.227Z,1013.94
2017-02-19T12:07:46.203Z,1013.98
2017-02-19T12:08:46.180Z,1013.92